sensor_id;sensor_type;location;lat;lon;timestamp;pressure;altitude;pressure_sealevel;temperature;humidity
62849;BME280;48941;49.516;8.286;2023-02-26T00:00:22;100145.22;;;-0.21;63.74
62849;BME280;48941;49.516;8.286;2023-02-26T00:02:51;100144.38;;;-0.22;64.08
62849;BME280;48941;49.516;8.286;2023-02-26T00:05:19;100141.75;;;-0.22;63.62
62849;BME280;48941;49.516;8.286;2023-02-26T00:07:47;100139.97;;;-0.21;64.00
62849;BME280;48941;49.516;8.286;2023-02-26T00:10:15;100143.38;;;-0.19;63.75
62849;BME280;48941;49.516;8.286;2023-02-26T00:12:45;100145.25;;;-0.23;64.13
62849;BME280;48941;49.516;8.286;2023-02-26T00:15:13;100143.50;;;-0.22;64.24
62849;BME280;48941;49.516;8.286;2023-02-26T00:17:48;100146.78;;;-0.17;64.20
62849;BME280;48941;49.516;8.286;2023-02-26T00:20:21;100144.22;;;-0.18;64.18
62849;BME280;48941;49.516;8.286;2023-02-26T00:22:49;100144.53;;;-0.26;63.99
62849;BME280;48941;49.516;8.286;2023-02-26T00:25:17;100148.88;;;-0.25;64.14
62849;BME280;48941;49.516;8.286;2023-02-26T00:27:45;100152.63;;;-0.32;64.81
62849;BME280;48941;49.516;8.286;2023-02-26T00:30:14;100147.47;;;-0.34;64.59
62849;BME280;48941;49.516;8.286;2023-02-26T00:32:42;100149.28;;;-0.36;64.99
62849;BME280;48941;49.516;8.286;2023-02-26T00:35:12;100145.75;;;-0.35;64.78
62849;BME280;48941;49.516;8.286;2023-02-26T00:38:07;100153.50;;;-0.32;65.01
62849;BME280;48941;49.516;8.286;2023-02-26T00:40:42;100153.50;;;-0.32;65.18
62849;BME280;48941;49.516;8.286;2023-02-26T00:43:14;100155.09;;;-0.28;65.69
62849;BME280;48941;49.516;8.286;2023-02-26T00:45:50;100153.41;;;-0.30;65.45
62849;BME280;48941;49.516;8.286;2023-02-26T00:48:37;100158.59;;;-0.29;65.42
62849;BME280;48941;49.516;8.286;2023-02-26T00:51:13;100152.56;;;-0.31;65.57
62849;BME280;48941;49.516;8.286;2023-02-26T00:53:52;100156.28;;;-0.36;65.48
62849;BME280;48941;49.516;8.286;2023-02-26T00:56:24;100156.31;;;-0.38;65.74
62849;BME280;48941;49.516;8.286;2023-02-26T00:58:52;100159.88;;;-0.39;66.32
62849;BME280;48941;49.516;8.286;2023-02-26T01:01:20;100150.09;;;-0.34;66.27
62849;BME280;48941;49.516;8.286;2023-02-26T01:03:48;100153.66;;;-0.36;66.67
62849;BME280;48941;49.516;8.286;2023-02-26T01:06:19;100156.41;;;-0.39;66.88
62849;BME280;48941;49.516;8.286;2023-02-26T01:08:54;100155.66;;;-0.43;67.21
62849;BME280;48941;49.516;8.286;2023-02-26T01:11:25;100155.63;;;-0.42;67.63
62849;BME280;48941;49.516;8.286;2023-02-26T01:13:53;100157.53;;;-0.47;67.86
62849;BME280;48941;49.516;8.286;2023-02-26T01:16:26;100155.78;;;-0.46;67.89
62849;BME280;48941;49.516;8.286;2023-02-26T01:18:58;100159.41;;;-0.50;68.34
62849;BME280;48941;49.516;8.286;2023-02-26T01:21:33;100156.88;;;-0.52;68.70
62849;BME280;48941;49.516;8.286;2023-02-26T01:24:06;100156.94;;;-0.53;69.19
62849;BME280;48941;49.516;8.286;2023-02-26T01:26:35;100155.72;;;-0.45;69.07
62849;BME280;48941;49.516;8.286;2023-02-26T01:29:03;100155.47;;;-0.38;69.18
62849;BME280;48941;49.516;8.286;2023-02-26T01:31:37;100155.72;;;-0.45;69.64
62849;BME280;48941;49.516;8.286;2023-02-26T01:34:13;100154.63;;;-0.39;69.84
62849;BME280;48941;49.516;8.286;2023-02-26T01:36:44;100157.16;;;-0.36;70.17
62849;BME280;48941;49.516;8.286;2023-02-26T01:39:24;100157.06;;;-0.34;70.35
62849;BME280;48941;49.516;8.286;2023-02-26T01:41:59;100151.91;;;-0.36;70.61
62849;BME280;48941;49.516;8.286;2023-02-26T01:44:37;100161.22;;;-0.29;70.96
62849;BME280;48941;49.516;8.286;2023-02-26T01:47:16;100143.03;;;-0.32;70.98
62849;BME280;48941;49.516;8.286;2023-02-26T01:49:45;100148.81;;;-0.24;71.03
62849;BME280;48941;49.516;8.286;2023-02-26T01:55:33;100145.16;;;-0.19;70.81
62849;BME280;48941;49.516;8.286;2023-02-26T01:58:01;100157.16;;;-0.14;70.46
62849;BME280;48941;49.516;8.286;2023-02-26T02:00:30;100146.50;;;-0.09;70.13
62849;BME280;48941;49.516;8.286;2023-02-26T02:02:58;100141.06;;;-0.05;70.29
62849;BME280;48941;49.516;8.286;2023-02-26T02:05:30;100147.72;;;0.04;69.93
62849;BME280;48941;49.516;8.286;2023-02-26T02:08:00;100152.16;;;0.02;69.93
62849;BME280;48941;49.516;8.286;2023-02-26T02:10:28;100150.34;;;0.04;69.69
62849;BME280;48941;49.516;8.286;2023-02-26T02:13:06;100152.06;;;0.04;70.07
62849;BME280;48941;49.516;8.286;2023-02-26T02:15:41;100156.53;;;0.02;70.14
62849;BME280;48941;49.516;8.286;2023-02-26T02:18:18;100165.31;;;0.01;70.00
62849;BME280;48941;49.516;8.286;2023-02-26T02:21:03;100167.00;;;0.02;70.15
62849;BME280;48941;49.516;8.286;2023-02-26T02:23:37;100172.97;;;0.05;69.80
62849;BME280;48941;49.516;8.286;2023-02-26T02:29:26;100171.19;;;0.06;69.56
62849;BME280;48941;49.516;8.286;2023-02-26T02:32:00;100171.13;;;0.07;69.17
62849;BME280;48941;49.516;8.286;2023-02-26T02:34:36;100165.84;;;0.09;69.10
62849;BME280;48941;49.516;8.286;2023-02-26T02:37:12;100175.53;;;0.07;69.30
62849;BME280;48941;49.516;8.286;2023-02-26T02:39:45;100181.75;;;0.04;69.29
62849;BME280;48941;49.516;8.286;2023-02-26T02:42:20;100183.94;;;0.15;68.93
62849;BME280;48941;49.516;8.286;2023-02-26T02:44:54;100184.19;;;0.09;69.25
62849;BME280;48941;49.516;8.286;2023-02-26T02:47:25;100179.06;;;0.06;69.34
62849;BME280;48941;49.516;8.286;2023-02-26T02:50:00;100186.00;;;0.07;69.38
62849;BME280;48941;49.516;8.286;2023-02-26T02:52:32;100181.63;;;0.07;69.42
62849;BME280;48941;49.516;8.286;2023-02-26T02:55:06;100180.63;;;0.10;69.37
62849;BME280;48941;49.516;8.286;2023-02-26T02:57:36;100181.66;;;0.06;69.80
62849;BME280;48941;49.516;8.286;2023-02-26T03:00:07;100178.94;;;0.09;69.71
62849;BME280;48941;49.516;8.286;2023-02-26T03:02:44;100182.22;;;0.14;69.55
62849;BME280;48941;49.516;8.286;2023-02-26T03:05:14;100190.75;;;-0.03;70.06
62849;BME280;48941;49.516;8.286;2023-02-26T03:07:48;100190.06;;;-0.08;70.03
62849;BME280;48941;49.516;8.286;2023-02-26T03:10:17;100197.09;;;-0.09;69.77
62849;BME280;48941;49.516;8.286;2023-02-26T03:12:45;100197.88;;;-0.07;69.53
62849;BME280;48941;49.516;8.286;2023-02-26T03:15:14;100203.16;;;-0.08;68.81
62849;BME280;48941;49.516;8.286;2023-02-26T03:17:59;100205.00;;;-0.10;69.02
62849;BME280;48941;49.516;8.286;2023-02-26T03:20:33;100203.28;;;-0.11;69.11
62849;BME280;48941;49.516;8.286;2023-02-26T03:23:07;100206.91;;;-0.14;69.37
62849;BME280;48941;49.516;8.286;2023-02-26T03:25:44;100206.22;;;-0.19;69.36
62849;BME280;48941;49.516;8.286;2023-02-26T03:28:19;100214.13;;;-0.21;69.50
62849;BME280;48941;49.516;8.286;2023-02-26T03:30:54;100215.69;;;-0.16;69.14
62849;BME280;48941;49.516;8.286;2023-02-26T03:33:29;100218.44;;;-0.19;68.80
62849;BME280;48941;49.516;8.286;2023-02-26T03:36:04;100222.81;;;-0.20;68.49
62849;BME280;48941;49.516;8.286;2023-02-26T03:38:38;100223.94;;;-0.26;68.40
62849;BME280;48941;49.516;8.286;2023-02-26T03:41:11;100221.88;;;-0.17;68.59
62849;BME280;48941;49.516;8.286;2023-02-26T03:43:44;100224.59;;;-0.21;68.83
62849;BME280;48941;49.516;8.286;2023-02-26T03:46:17;100228.19;;;-0.23;69.44
62849;BME280;48941;49.516;8.286;2023-02-26T03:48:49;100231.03;;;-0.29;70.04
62849;BME280;48941;49.516;8.286;2023-02-26T03:51:18;100241.84;;;-0.38;70.34
62849;BME280;48941;49.516;8.286;2023-02-26T03:53:50;100251.41;;;-0.37;70.63
62849;BME280;48941;49.516;8.286;2023-02-26T03:56:25;100241.88;;;-0.40;70.97
62849;BME280;48941;49.516;8.286;2023-02-26T03:58:55;100254.31;;;-0.45;71.19
62849;BME280;48941;49.516;8.286;2023-02-26T04:01:26;100250.16;;;-0.51;71.63
62849;BME280;48941;49.516;8.286;2023-02-26T04:04:01;100253.59;;;-0.50;71.78
62849;BME280;48941;49.516;8.286;2023-02-26T04:06:31;100249.47;;;-0.56;72.10
62849;BME280;48941;49.516;8.286;2023-02-26T04:09:01;100255.59;;;-0.57;72.14
62849;BME280;48941;49.516;8.286;2023-02-26T04:11:30;100261.06;;;-0.63;72.50
62849;BME280;48941;49.516;8.286;2023-02-26T04:13:58;100258.63;;;-0.68;72.83
62849;BME280;48941;49.516;8.286;2023-02-26T04:16:26;100254.50;;;-0.75;72.81
62849;BME280;48941;49.516;8.286;2023-02-26T04:18:54;100269.41;;;-0.77;73.29
62849;BME280;48941;49.516;8.286;2023-02-26T04:21:23;100276.50;;;-0.81;73.65
62849;BME280;48941;49.516;8.286;2023-02-26T04:23:51;100270.47;;;-0.83;73.77
62849;BME280;48941;49.516;8.286;2023-02-26T04:26:19;100270.63;;;-0.87;74.13
62849;BME280;48941;49.516;8.286;2023-02-26T04:28:47;100273.13;;;-0.84;74.10
62849;BME280;48941;49.516;8.286;2023-02-26T04:31:14;100281.97;;;-0.88;74.51
62849;BME280;48941;49.516;8.286;2023-02-26T04:33:42;100274.13;;;-0.88;74.65
62849;BME280;48941;49.516;8.286;2023-02-26T04:36:10;100283.81;;;-0.90;75.01
62849;BME280;48941;49.516;8.286;2023-02-26T04:38:39;100280.44;;;-0.94;75.56
62849;BME280;48941;49.516;8.286;2023-02-26T04:41:07;100280.50;;;-0.95;75.83
62849;BME280;48941;49.516;8.286;2023-02-26T04:43:35;100288.34;;;-0.95;75.98
62849;BME280;48941;49.516;8.286;2023-02-26T04:46:03;100290.22;;;-0.99;76.23
62849;BME280;48941;49.516;8.286;2023-02-26T04:48:31;100294.59;;;-0.99;76.56
62849;BME280;48941;49.516;8.286;2023-02-26T04:50:59;100300.75;;;-1.02;76.73
62849;BME280;48941;49.516;8.286;2023-02-26T04:53:26;100306.06;;;-1.04;76.83
62849;BME280;48941;49.516;8.286;2023-02-26T04:55:56;100304.34;;;-1.05;76.71
62849;BME280;48941;49.516;8.286;2023-02-26T04:58:23;100307.00;;;-1.06;76.93
62849;BME280;48941;49.516;8.286;2023-02-26T05:00:52;100308.94;;;-1.11;77.20
62849;BME280;48941;49.516;8.286;2023-02-26T05:03:20;100309.84;;;-1.14;77.36
62849;BME280;48941;49.516;8.286;2023-02-26T05:05:48;100316.81;;;-1.13;77.34
62849;BME280;48941;49.516;8.286;2023-02-26T05:08:16;100317.78;;;-1.15;77.68
62849;BME280;48941;49.516;8.286;2023-02-26T05:10:44;100319.78;;;-1.24;78.09
62849;BME280;48941;49.516;8.286;2023-02-26T05:13:13;100323.13;;;-1.20;78.18
62849;BME280;48941;49.516;8.286;2023-02-26T05:15:41;100331.78;;;-1.18;77.81
62849;BME280;48941;49.516;8.286;2023-02-26T05:18:09;100333.53;;;-1.18;77.90
62849;BME280;48941;49.516;8.286;2023-02-26T05:20:37;100340.78;;;-1.27;78.41
62849;BME280;48941;49.516;8.286;2023-02-26T05:23:05;100341.59;;;-1.25;78.42
62849;BME280;48941;49.516;8.286;2023-02-26T05:25:33;100349.38;;;-1.23;78.53
62849;BME280;48941;49.516;8.286;2023-02-26T05:28:01;100350.22;;;-1.23;78.34
62849;BME280;48941;49.516;8.286;2023-02-26T05:30:30;100354.69;;;-1.26;78.74
62849;BME280;48941;49.516;8.286;2023-02-26T05:32:58;100351.34;;;-1.30;79.06
62849;BME280;48941;49.516;8.286;2023-02-26T05:35:29;100360.84;;;-1.27;79.45
62849;BME280;48941;49.516;8.286;2023-02-26T05:37:56;100358.06;;;-1.23;79.60
62849;BME280;48941;49.516;8.286;2023-02-26T05:40:25;100365.91;;;-1.23;79.77
62849;BME280;48941;49.516;8.286;2023-02-26T05:42:53;100365.88;;;-1.21;79.88
62849;BME280;48941;49.516;8.286;2023-02-26T05:45:21;100372.78;;;-1.20;80.02
62849;BME280;48941;49.516;8.286;2023-02-26T05:47:50;100369.34;;;-1.21;80.07
62849;BME280;48941;49.516;8.286;2023-02-26T05:50:17;100372.72;;;-1.17;80.29
62849;BME280;48941;49.516;8.286;2023-02-26T05:52:45;100376.13;;;-1.15;80.46
62849;BME280;48941;49.516;8.286;2023-02-26T05:55:13;100370.06;;;-1.15;80.73
62849;BME280;48941;49.516;8.286;2023-02-26T05:57:42;100380.50;;;-1.15;80.75
62849;BME280;48941;49.516;8.286;2023-02-26T06:00:11;100377.03;;;-1.16;80.86
62849;BME280;48941;49.516;8.286;2023-02-26T06:02:39;100376.94;;;-1.13;80.78
62849;BME280;48941;49.516;8.286;2023-02-26T06:05:09;100384.72;;;-1.11;80.58
62849;BME280;48941;49.516;8.286;2023-02-26T06:07:37;100383.97;;;-1.15;80.68
62849;BME280;48941;49.516;8.286;2023-02-26T06:10:06;100391.78;;;-1.13;80.93
62849;BME280;48941;49.516;8.286;2023-02-26T06:12:34;100392.66;;;-1.14;80.90
62849;BME280;48941;49.516;8.286;2023-02-26T06:15:06;100403.91;;;-1.12;80.96
62849;BME280;48941;49.516;8.286;2023-02-26T06:17:35;100405.69;;;-1.13;81.00
62849;BME280;48941;49.516;8.286;2023-02-26T06:20:07;100412.72;;;-1.15;81.14
62849;BME280;48941;49.516;8.286;2023-02-26T06:22:36;100409.25;;;-1.15;81.27
62849;BME280;48941;49.516;8.286;2023-02-26T06:25:05;100416.22;;;-1.16;81.20
62849;BME280;48941;49.516;8.286;2023-02-26T06:27:33;100416.16;;;-1.13;80.99
62849;BME280;48941;49.516;8.286;2023-02-26T06:30:00;100417.91;;;-1.13;80.89
62849;BME280;48941;49.516;8.286;2023-02-26T06:32:28;100413.53;;;-1.13;80.93
62849;BME280;48941;49.516;8.286;2023-02-26T06:34:56;100427.44;;;-1.12;81.09
62849;BME280;48941;49.516;8.286;2023-02-26T06:37:24;100437.06;;;-1.13;80.98
62849;BME280;48941;49.516;8.286;2023-02-26T06:39:53;100445.69;;;-1.11;80.99
62849;BME280;48941;49.516;8.286;2023-02-26T06:42:21;100444.06;;;-1.13;80.93
62849;BME280;48941;49.516;8.286;2023-02-26T06:44:48;100451.09;;;-1.15;81.09
62849;BME280;48941;49.516;8.286;2023-02-26T06:47:16;100457.94;;;-1.11;80.96
62849;BME280;48941;49.516;8.286;2023-02-26T06:49:44;100466.66;;;-1.12;80.93
62849;BME280;48941;49.516;8.286;2023-02-26T06:52:12;100466.56;;;-1.09;80.99
62849;BME280;48941;49.516;8.286;2023-02-26T06:54:40;100478.59;;;-1.04;80.42
62849;BME280;48941;49.516;8.286;2023-02-26T06:57:09;100474.47;;;-1.11;80.60
62849;BME280;48941;49.516;8.286;2023-02-26T06:59:36;100477.47;;;-0.95;80.20
62849;BME280;48941;49.516;8.286;2023-02-26T07:02:04;100489.75;;;-0.98;79.79
62849;BME280;48941;49.516;8.286;2023-02-26T07:04:32;100491.59;;;-1.02;79.79
62849;BME280;48941;49.516;8.286;2023-02-26T07:06:59;100497.56;;;-0.97;79.78
62849;BME280;48941;49.516;8.286;2023-02-26T07:09:27;100499.34;;;-0.97;79.92
62849;BME280;48941;49.516;8.286;2023-02-26T07:11:55;100505.38;;;-0.95;79.91
62849;BME280;48941;49.516;8.286;2023-02-26T07:14:24;100508.66;;;-0.89;80.13
62849;BME280;48941;49.516;8.286;2023-02-26T07:16:52;100517.25;;;-0.85;79.99
62849;BME280;48941;49.516;8.286;2023-02-26T07:19:20;100515.34;;;-0.80;80.02
62849;BME280;48941;49.516;8.286;2023-02-26T07:21:50;100515.28;;;-0.78;80.10
62849;BME280;48941;49.516;8.286;2023-02-26T07:24:23;100522.88;;;-0.69;79.84
62849;BME280;48941;49.516;8.286;2023-02-26T07:26:51;100520.00;;;-0.62;79.61
62849;BME280;48941;49.516;8.286;2023-02-26T07:29:19;100529.44;;;-0.56;79.30
62849;BME280;48941;49.516;8.286;2023-02-26T07:31:48;100536.34;;;-0.55;79.49
62849;BME280;48941;49.516;8.286;2023-02-26T07:34:16;100545.75;;;-0.48;78.99
62849;BME280;48941;49.516;8.286;2023-02-26T07:36:44;100542.13;;;-0.44;79.07
62849;BME280;48941;49.516;8.286;2023-02-26T07:39:12;100549.53;;;-0.30;78.80
62849;BME280;48941;49.516;8.286;2023-02-26T07:41:39;100548.31;;;-0.19;78.20
62849;BME280;48941;49.516;8.286;2023-02-26T07:44:07;100550.56;;;-0.09;78.14
62849;BME280;48941;49.516;8.286;2023-02-26T07:46:35;100549.19;;;0.06;77.36
62849;BME280;48941;49.516;8.286;2023-02-26T07:49:04;100551.16;;;0.50;76.26
62849;BME280;48941;49.516;8.286;2023-02-26T07:51:32;100557.72;;;0.85;74.28
62849;BME280;48941;49.516;8.286;2023-02-26T07:54:00;100557.72;;;1.09;72.36
62849;BME280;48941;49.516;8.286;2023-02-26T07:56:28;100546.78;;;0.97;71.70
62849;BME280;48941;49.516;8.286;2023-02-26T07:58:56;100547.75;;;0.95;71.07
62849;BME280;48941;49.516;8.286;2023-02-26T08:01:24;100561.59;;;0.75;71.64
62849;BME280;48941;49.516;8.286;2023-02-26T08:03:54;100565.34;;;0.68;71.00
62849;BME280;48941;49.516;8.286;2023-02-26T08:06:23;100560.09;;;0.68;71.21
62849;BME280;48941;49.516;8.286;2023-02-26T08:08:51;100566.50;;;0.61;71.38
62849;BME280;48941;49.516;8.286;2023-02-26T08:11:19;100577.44;;;0.48;71.98
62849;BME280;48941;49.516;8.286;2023-02-26T08:13:47;100570.94;;;0.33;72.50
62849;BME280;48941;49.516;8.286;2023-02-26T08:16:15;100571.75;;;0.35;72.20
62849;BME280;48941;49.516;8.286;2023-02-26T08:18:43;100576.72;;;0.43;71.91
62849;BME280;48941;49.516;8.286;2023-02-26T08:21:11;100577.69;;;0.41;71.94
62849;BME280;48941;49.516;8.286;2023-02-26T08:23:41;100584.91;;;0.34;71.48
62849;BME280;48941;49.516;8.286;2023-02-26T08:26:10;100583.25;;;0.31;71.72
62849;BME280;48941;49.516;8.286;2023-02-26T08:28:40;100582.13;;;0.38;71.65
62849;BME280;48941;49.516;8.286;2023-02-26T08:31:08;100583.91;;;0.38;71.69
62849;BME280;48941;49.516;8.286;2023-02-26T08:33:36;100580.38;;;0.39;71.20
62849;BME280;48941;49.516;8.286;2023-02-26T08:36:05;100584.59;;;0.43;71.76
62849;BME280;48941;49.516;8.286;2023-02-26T08:38:33;100589.25;;;0.35;71.11
62849;BME280;48941;49.516;8.286;2023-02-26T08:41:03;100590.00;;;0.38;71.25
62849;BME280;48941;49.516;8.286;2023-02-26T08:43:31;100593.84;;;0.53;71.33
62849;BME280;48941;49.516;8.286;2023-02-26T08:45:59;100589.38;;;0.55;69.79
62849;BME280;48941;49.516;8.286;2023-02-26T08:48:27;100593.63;;;0.59;69.19
62849;BME280;48941;49.516;8.286;2023-02-26T08:50:55;100598.06;;;0.57;70.04
62849;BME280;48941;49.516;8.286;2023-02-26T08:53:23;100598.84;;;0.59;69.09
62849;BME280;48941;49.516;8.286;2023-02-26T08:55:52;100593.47;;;0.64;68.27
62849;BME280;48941;49.516;8.286;2023-02-26T08:58:21;100597.63;;;0.70;68.64
62849;BME280;48941;49.516;8.286;2023-02-26T09:00:49;100600.66;;;0.83;68.87
62849;BME280;48941;49.516;8.286;2023-02-26T09:03:17;100599.47;;;1.15;67.99
62849;BME280;48941;49.516;8.286;2023-02-26T09:05:45;100602.13;;;1.37;65.96
62849;BME280;48941;49.516;8.286;2023-02-26T09:08:13;100609.47;;;1.51;64.53
62849;BME280;48941;49.516;8.286;2023-02-26T09:10:41;100610.56;;;1.67;63.38
62849;BME280;48941;49.516;8.286;2023-02-26T09:13:09;100616.28;;;1.99;62.01
62849;BME280;48941;49.516;8.286;2023-02-26T09:15:38;100623.63;;;2.33;61.92
62849;BME280;48941;49.516;8.286;2023-02-26T09:18:06;100627.50;;;2.45;60.53
62849;BME280;48941;49.516;8.286;2023-02-26T09:20:40;100632.38;;;2.34;60.62
62849;BME280;48941;49.516;8.286;2023-02-26T09:23:09;100639.44;;;2.11;60.10
62849;BME280;48941;49.516;8.286;2023-02-26T09:25:37;100643.75;;;1.92;60.17
62849;BME280;48941;49.516;8.286;2023-02-26T09:28:05;100640.63;;;1.82;61.12
62849;BME280;48941;49.516;8.286;2023-02-26T09:30:32;100651.19;;;2.03;60.38
62849;BME280;48941;49.516;8.286;2023-02-26T09:33:02;100656.47;;;2.23;60.35
62849;BME280;48941;49.516;8.286;2023-02-26T09:35:29;100647.63;;;2.46;58.99
62849;BME280;48941;49.516;8.286;2023-02-26T09:37:58;100655.00;;;2.58;58.37
62849;BME280;48941;49.516;8.286;2023-02-26T09:40:39;100648.69;;;2.63;57.52
62849;BME280;48941;49.516;8.286;2023-02-26T09:43:30;100653.69;;;2.69;58.09
62849;BME280;48941;49.516;8.286;2023-02-26T09:46:03;100648.44;;;2.48;57.62
62849;BME280;48941;49.516;8.286;2023-02-26T09:48:36;100656.44;;;2.45;58.10
62849;BME280;48941;49.516;8.286;2023-02-26T09:51:08;100655.91;;;2.37;58.82
62849;BME280;48941;49.516;8.286;2023-02-26T09:53:40;100654.16;;;2.58;57.54
62849;BME280;48941;49.516;8.286;2023-02-26T09:56:13;100654.22;;;2.56;57.06
62849;BME280;48941;49.516;8.286;2023-02-26T09:58:44;100649.75;;;2.58;57.06
62849;BME280;48941;49.516;8.286;2023-02-26T10:01:16;100656.94;;;2.53;56.46
62849;BME280;48941;49.516;8.286;2023-02-26T10:03:55;100663.59;;;2.42;56.80
62849;BME280;48941;49.516;8.286;2023-02-26T10:06:27;100655.19;;;2.54;55.93
62849;BME280;48941;49.516;8.286;2023-02-26T10:09:16;100655.66;;;2.64;55.67
62849;BME280;48941;49.516;8.286;2023-02-26T10:11:49;100657.78;;;2.95;54.77
62849;BME280;48941;49.516;8.286;2023-02-26T10:14:22;100662.91;;;3.18;54.59
62849;BME280;48941;49.516;8.286;2023-02-26T10:16:55;100652.38;;;3.56;53.46
62849;BME280;48941;49.516;8.286;2023-02-26T10:19:28;100656.56;;;3.79;52.60
62849;BME280;48941;49.516;8.286;2023-02-26T10:22:00;100658.97;;;4.21;52.06
62849;BME280;48941;49.516;8.286;2023-02-26T10:24:37;100662.53;;;4.19;51.77
62849;BME280;48941;49.516;8.286;2023-02-26T10:27:12;100669.50;;;4.21;50.78
62849;BME280;48941;49.516;8.286;2023-02-26T10:29:44;100660.16;;;4.50;50.25
62849;BME280;48941;49.516;8.286;2023-02-26T10:32:22;100674.19;;;4.50;50.39
62849;BME280;48941;49.516;8.286;2023-02-26T10:34:55;100669.91;;;4.65;49.94
62849;BME280;48941;49.516;8.286;2023-02-26T10:37:33;100679.41;;;4.69;49.34
62849;BME280;48941;49.516;8.286;2023-02-26T10:40:08;100682.63;;;4.57;49.70
62849;BME280;48941;49.516;8.286;2023-02-26T10:42:40;100679.47;;;4.50;48.70
62849;BME280;48941;49.516;8.286;2023-02-26T10:45:21;100682.25;;;4.47;49.26
62849;BME280;48941;49.516;8.286;2023-02-26T10:47:57;100677.22;;;4.43;49.56
62849;BME280;48941;49.516;8.286;2023-02-26T10:50:30;100675.91;;;4.34;49.17
62849;BME280;48941;49.516;8.286;2023-02-26T10:52:58;100680.22;;;4.17;49.21
62849;BME280;48941;49.516;8.286;2023-02-26T10:55:32;100676.69;;;3.99;49.20
62849;BME280;48941;49.516;8.286;2023-02-26T10:58:05;100687.31;;;3.98;50.11
62849;BME280;48941;49.516;8.286;2023-02-26T11:00:33;100687.91;;;4.03;50.34
62849;BME280;48941;49.516;8.286;2023-02-26T11:03:02;100677.38;;;4.03;49.72
62849;BME280;48941;49.516;8.286;2023-02-26T11:05:33;100681.44;;;3.74;49.76
62849;BME280;48941;49.516;8.286;2023-02-26T11:08:03;100681.41;;;3.55;49.98
62849;BME280;48941;49.516;8.286;2023-02-26T11:10:41;100697.00;;;3.78;50.14
62849;BME280;48941;49.516;8.286;2023-02-26T11:13:09;100700.22;;;3.66;50.02
62849;BME280;48941;49.516;8.286;2023-02-26T11:15:38;100694.78;;;3.69;51.15
62849;BME280;48941;49.516;8.286;2023-02-26T11:18:11;100692.34;;;4.03;50.18
62849;BME280;48941;49.516;8.286;2023-02-26T11:20:45;100690.53;;;4.22;48.80
62849;BME280;48941;49.516;8.286;2023-02-26T11:23:16;100682.88;;;4.52;48.93
62849;BME280;48941;49.516;8.286;2023-02-26T11:25:45;100692.97;;;4.62;48.16
62849;BME280;48941;49.516;8.286;2023-02-26T11:28:21;100697.16;;;4.66;48.99
62849;BME280;48941;49.516;8.286;2023-02-26T11:30:50;100693.06;;;4.60;47.95
62849;BME280;48941;49.516;8.286;2023-02-26T11:33:26;100693.00;;;4.25;48.80
62849;BME280;48941;49.516;8.286;2023-02-26T11:36:00;100700.97;;;4.06;49.34
62849;BME280;48941;49.516;8.286;2023-02-26T11:38:29;100695.75;;;4.05;49.09
62849;BME280;48941;49.516;8.286;2023-02-26T11:41:00;100696.59;;;3.88;49.25
62849;BME280;48941;49.516;8.286;2023-02-26T11:43:35;100712.59;;;3.83;48.56
62849;BME280;48941;49.516;8.286;2023-02-26T11:46:04;100707.19;;;3.67;49.26
62849;BME280;48941;49.516;8.286;2023-02-26T11:48:39;100705.72;;;3.62;50.00
62849;BME280;48941;49.516;8.286;2023-02-26T11:51:12;100697.59;;;3.66;49.82
62849;BME280;48941;49.516;8.286;2023-02-26T11:53:47;100707.47;;;3.61;49.64
62849;BME280;48941;49.516;8.286;2023-02-26T11:56:24;100695.53;;;3.54;49.60
62849;BME280;48941;49.516;8.286;2023-02-26T11:58:53;100707.16;;;3.29;49.63
62849;BME280;48941;49.516;8.286;2023-02-26T12:01:26;100708.38;;;3.41;49.62
62849;BME280;48941;49.516;8.286;2023-02-26T12:03:58;100705.41;;;3.49;49.81
62849;BME280;48941;49.516;8.286;2023-02-26T12:06:28;100713.38;;;3.47;49.39
62849;BME280;48941;49.516;8.286;2023-02-26T12:08:56;100699.13;;;3.32;48.79
62849;BME280;48941;49.516;8.286;2023-02-26T12:17:32;100696.88;;;3.44;48.82
62849;BME280;48941;49.516;8.286;2023-02-26T12:20:12;100706.69;;;3.40;49.28
62849;BME280;48941;49.516;8.286;2023-02-26T12:22:48;100711.50;;;3.49;50.02
62849;BME280;48941;49.516;8.286;2023-02-26T12:28:42;100711.50;;;3.30;50.31
62849;BME280;48941;49.516;8.286;2023-02-26T12:31:25;100711.63;;;3.27;50.48
62849;BME280;48941;49.516;8.286;2023-02-26T12:34:09;100708.22;;;3.25;50.36
62849;BME280;48941;49.516;8.286;2023-02-26T12:36:53;100704.44;;;3.31;50.26
62849;BME280;48941;49.516;8.286;2023-02-26T12:39:42;100706.09;;;3.33;50.13
62849;BME280;48941;49.516;8.286;2023-02-26T12:42:20;100700.03;;;3.31;50.32
62849;BME280;48941;49.516;8.286;2023-02-26T12:45:03;100699.56;;;3.42;49.89
62849;BME280;48941;49.516;8.286;2023-02-26T12:47:42;100696.00;;;3.43;49.89
62849;BME280;48941;49.516;8.286;2023-02-26T12:50:28;100705.19;;;3.53;49.20
62849;BME280;48941;49.516;8.286;2023-02-26T12:56:07;100695.50;;;3.73;49.20
62849;BME280;48941;49.516;8.286;2023-02-26T12:58:48;100701.91;;;3.86;48.99
62849;BME280;48941;49.516;8.286;2023-02-26T13:01:34;100694.56;;;3.93;48.61
62849;BME280;48941;49.516;8.286;2023-02-26T13:04:24;100694.94;;;3.85;48.27
62849;BME280;48941;49.516;8.286;2023-02-26T13:09:54;100692.88;;;3.92;48.57
62849;BME280;48941;49.516;8.286;2023-02-26T13:12:36;100682.81;;;3.81;48.08
62849;BME280;48941;49.516;8.286;2023-02-26T13:15:24;100694.88;;;3.68;48.47
62849;BME280;48941;49.516;8.286;2023-02-26T13:18:01;100690.03;;;3.77;48.05
62849;BME280;48941;49.516;8.286;2023-02-26T13:20:32;100687.25;;;3.81;48.34
62849;BME280;48941;49.516;8.286;2023-02-26T13:23:04;100691.59;;;3.82;48.73
62849;BME280;48941;49.516;8.286;2023-02-26T13:25:39;100694.66;;;3.72;48.26
62849;BME280;48941;49.516;8.286;2023-02-26T13:28:19;100692.22;;;3.87;47.82
62849;BME280;48941;49.516;8.286;2023-02-26T13:30:52;100684.97;;;3.92;47.23
62849;BME280;48941;49.516;8.286;2023-02-26T13:33:24;100693.47;;;3.79;47.96
62849;BME280;48941;49.516;8.286;2023-02-26T13:35:53;100707.03;;;3.89;48.19
62849;BME280;48941;49.516;8.286;2023-02-26T13:38:32;100695.81;;;3.86;48.34